Time;durP1;ratioP1;P1;durP2;ratioP2;P2;SDS_P1;SDS_P2;PMS_P1;PMS_P2;Temp;Humidity;BMP_temperature;BMP_pressure;BME280_temperature;BME280_humidity;BME280_pressure;Samples;Min_cycle;Max_cycle;Signal;HPM_P1;HPM_P2
2023/02/02 00:01:53;;;;;;;10.57;2.03;;;7.00;99.90;;;;;;5089207;28;20500;-77
2023/02/02 00:04:26;;;;;;;10.37;2.43;;;7.00;99.90;;;;;;5093710;28;20462;-75
2023/02/02 00:06:52;;;;;;;11.63;2.13;;;6.90;99.90;;;;;;5075102;28;20460;-75
2023/02/02 00:09:19;;;;;;;8.33;2.20;;;6.90;99.90;;;;;;5075726;28;20036;-75
2023/02/02 00:11:47;;;;;;;12.03;2.03;;;6.90;99.90;;;;;;5075444;28;20024;-74
2023/02/02 00:14:13;;;;;;;16.30;2.40;;;6.90;99.90;;;;;;5075093;28;20078;-74
2023/02/02 00:16:41;;;;;;;12.47;2.10;;;6.90;99.90;;;;;;5075636;28;20143;-75
2023/02/02 00:19:10;;;;;;;9.43;2.67;;;6.90;99.90;;;;;;5092517;28;20390;-75
2023/02/02 00:21:37;;;;;;;14.20;2.70;;;6.80;99.90;;;;;;5093589;28;20024;-75
2023/02/02 00:24:03;;;;;;;16.00;2.57;;;6.80;99.90;;;;;;5074276;28;20031;-75
2023/02/02 00:26:29;;;;;;;12.40;2.33;;;6.80;99.90;;;;;;5075245;28;20028;-74
2023/02/02 00:28:55;;;;;;;15.23;2.20;;;6.70;99.90;;;;;;5092833;28;20034;-74
2023/02/02 00:31:26;;;;;;;11.20;2.30;;;6.70;99.90;;;;;;5075261;28;20024;-73
2023/02/02 00:33:51;;;;;;;11.20;2.45;;;6.70;99.90;;;;;;5092684;28;20427;-77
2023/02/02 00:36:18;;;;;;;8.67;2.03;;;6.70;99.90;;;;;;5074898;28;20028;-72
2023/02/02 00:38:45;;;;;;;8.20;2.10;;;6.80;99.90;;;;;;5075073;28;20372;-73
2023/02/02 00:41:11;;;;;;;13.33;2.33;;;6.70;99.90;;;;;;5074377;28;20027;-73
2023/02/02 00:43:36;;;;;;;12.00;2.27;;;6.80;99.90;;;;;;5093224;28;20029;-72
2023/02/02 00:46:02;;;;;;;9.63;2.00;;;6.70;99.90;;;;;;5074340;28;20028;-73
2023/02/02 00:48:28;;;;;;;9.80;1.90;;;6.70;99.90;;;;;;5075114;28;20028;-73
2023/02/02 00:50:53;;;;;;;13.83;2.10;;;6.70;99.90;;;;;;5092320;28;20020;-74
2023/02/02 00:53:19;;;;;;;9.57;2.13;;;6.70;99.90;;;;;;5093123;28;20031;-73
2023/02/02 00:55:45;;;;;;;13.00;1.83;;;6.70;99.90;;;;;;5074883;28;20038;-73
2023/02/02 00:58:10;;;;;;;10.93;2.83;;;6.70;99.90;;;;;;5091835;28;20031;-72
2023/02/02 01:00:39;;;;;;;8.63;2.63;;;6.60;99.90;;;;;;5092574;28;20068;-73
2023/02/02 01:03:05;;;;;;;9.13;2.00;;;6.60;99.90;;;;;;5074031;28;20101;-73
2023/02/02 01:05:32;;;;;;;10.73;2.27;;;6.60;99.90;;;;;;5074680;28;20024;-72
2023/02/02 01:07:58;;;;;;;13.73;2.67;;;6.50;99.90;;;;;;5073947;28;20036;-73
2023/02/02 01:10:23;;;;;;;9.00;2.23;;;6.50;99.90;;;;;;5074237;28;20054;-72
2023/02/02 01:12:49;;;;;;;11.70;1.97;;;6.50;99.90;;;;;;5074647;28;20028;-72
2023/02/02 01:15:14;;;;;;;13.70;2.60;;;6.60;99.90;;;;;;5073935;28;20500;-73
2023/02/02 01:17:40;;;;;;;9.30;1.63;;;6.50;99.90;;;;;;5092411;28;20024;-73
2023/02/02 01:20:08;;;;;;;10.57;1.97;;;6.50;99.90;;;;;;5091210;28;20052;-73
2023/02/02 01:22:33;;;;;;;10.67;2.20;;;6.50;99.90;;;;;;5074355;28;20069;-73
2023/02/02 01:25:00;;;;;;;9.47;2.13;;;6.50;99.90;;;;;;5073547;28;20409;-73
2023/02/02 01:27:26;;;;;;;10.60;2.93;;;6.50;99.90;;;;;;5074349;28;20051;-73
2023/02/02 01:29:51;;;;;;;8.70;2.20;;;6.50;99.90;;;;;;5074143;28;20032;-73
2023/02/02 01:32:17;;;;;;;8.50;2.20;;;6.40;99.90;;;;;;5073697;28;20035;-73
2023/02/02 01:34:43;;;;;;;9.47;2.13;;;6.50;99.90;;;;;;5092479;28;20373;-72
2023/02/02 01:37:09;;;;;;;11.30;1.97;;;6.50;99.90;;;;;;5073573;28;20122;-73
2023/02/02 01:39:35;;;;;;;7.87;1.87;;;6.50;99.90;;;;;;5092504;28;20059;-74
2023/02/02 01:42:01;;;;;;;7.47;1.93;;;6.50;99.90;;;;;;5092059;28;20024;-73
2023/02/02 01:45:02;;;;;;;8.53;1.87;;;6.50;99.90;;;;;;5074496;28;20350;-73
2023/02/02 01:47:41;;;;;;;9.70;1.90;;;6.50;99.90;;;;;;5074305;28;20500;-73
2023/02/02 01:50:10;;;;;;;10.23;2.07;;;6.50;99.90;;;;;;5073813;28;20052;-73
2023/02/02 01:52:36;;;;;;;8.20;2.10;;;6.50;99.90;;;;;;5074326;28;20024;-73
2023/02/02 01:55:07;;;;;;;11.97;2.47;;;6.50;99.90;;;;;;5091600;28;20039;-74
2023/02/02 01:57:40;;;;;;;11.13;2.10;;;6.40;99.90;;;;;;5074434;28;20024;-73
2023/02/02 02:00:10;;;;;;;12.70;2.60;;;6.40;99.90;;;;;;5073642;28;20078;-74
2023/02/02 02:02:38;;;;;;;9.50;2.47;;;6.50;99.90;;;;;;5074186;28;20385;-74
2023/02/02 02:05:05;;;;;;;8.57;2.13;;;6.50;99.90;;;;;;5073413;28;20028;-74
2023/02/02 02:07:31;;;;;;;13.13;2.40;;;6.50;99.90;;;;;;5074179;28;20028;-73
2023/02/02 02:09:57;;;;;;;8.97;2.47;;;6.50;99.90;;;;;;5073760;28;20539;-75
2023/02/02 02:12:22;;;;;;;8.33;2.23;;;6.50;99.90;;;;;;5073943;28;20074;-74
2023/02/02 02:17:39;;;;;;;9.27;2.40;;;6.50;99.90;;;;;;5092344;28;20039;-73
2023/02/02 02:26:34;;;;;;;13.27;2.23;;;6.60;99.90;;;;;;5091224;28;20062;-73
2023/02/02 02:29:25;;;;;;;9.90;1.80;;;6.60;99.90;;;;;;5073336;28;20051;-75
2023/02/02 02:32:20;;;;;;;10.73;2.30;;;6.60;99.90;;;;;;5076898;28;20035;-73
2023/02/02 02:35:23;;;;;;;10.17;2.50;;;6.60;99.90;;;;;;5095861;28;20052;-73
2023/02/02 02:37:49;;;;;;;;;;;6.60;99.90;;;;;;5078006;28;20374;-73
2023/02/02 02:41:03;;;;;;;9.00;2.20;;;6.60;99.90;;;;;;5076808;28;20003;-74
2023/02/02 02:43:36;;;;;;;7.57;2.00;;;6.60;99.90;;;;;;4977337;28;20027;-73
2023/02/02 02:46:03;;;;;;;9.70;2.10;;;6.60;99.90;;;;;;4992830;28;20035;-74
2023/02/02 02:48:29;;;;;;;13.23;2.70;;;6.60;99.90;;;;;;4993449;28;20389;-73
2023/02/02 02:51:07;;;;;;;7.77;1.80;;;6.60;99.90;;;;;;4993469;28;20037;-73
2023/02/02 02:53:35;;;;;;;15.30;2.50;;;6.60;99.90;;;;;;4977303;28;20034;-73
2023/02/02 02:56:16;;;;;;;9.17;2.00;;;6.60;99.90;;;;;;4992692;28;20043;-75
2023/02/02 02:58:51;;;;;;;7.30;1.67;;;6.60;99.90;;;;;;4993794;28;20034;-74
2023/02/02 03:01:33;;;;;;;14.87;1.90;;;6.60;99.90;;;;;;4976322;28;20035;-73
2023/02/02 03:04:14;;;;;;;12.23;2.03;;;6.60;99.90;;;;;;4993102;28;20026;-75
2023/02/02 03:06:56;;;;;;;7.72;1.90;;;6.60;99.90;;;;;;4976760;28;20540;-74
2023/02/02 03:09:25;;;;;;;11.00;2.13;;;6.70;99.90;;;;;;4992493;28;20037;-74
2023/02/02 03:11:51;;;;;;;8.17;2.10;;;6.70;99.90;;;;;;4993207;28;20026;-73
2023/02/02 03:14:17;;;;;;;7.97;2.07;;;6.70;99.90;;;;;;5046232;28;20036;-74
2023/02/02 03:16:43;;;;;;;7.27;2.00;;;6.60;99.90;;;;;;5094913;28;20032;-73
2023/02/02 03:19:08;;;;;;;5.17;2.00;;;6.70;99.90;;;;;;5093872;28;20116;-74
2023/02/02 03:21:34;;;;;;;11.70;2.00;;;6.60;99.90;;;;;;5095094;28;20407;-73
2023/02/02 03:24:00;;;;;;;12.57;1.93;;;6.60;99.90;;;;;;5076344;28;20119;-75
2023/02/02 03:26:26;;;;;;;11.07;1.80;;;6.60;99.90;;;;;;5094262;28;20028;-74
2023/02/02 03:28:54;;;;;;;9.90;2.10;;;6.60;99.90;;;;;;5076576;28;20028;-73
2023/02/02 03:31:20;;;;;;;12.57;2.07;;;6.60;99.90;;;;;;5093494;28;20058;-74
2023/02/02 03:33:45;;;;;;;12.83;2.30;;;6.50;99.90;;;;;;5094526;28;20358;-73
2023/02/02 03:36:11;;;;;;;8.33;2.07;;;6.50;99.90;;;;;;5093532;28;20028;-73
2023/02/02 03:38:37;;;;;;;9.53;2.80;;;6.40;99.90;;;;;;5076399;28;20024;-73
2023/02/02 03:41:04;;;;;;;6.07;1.90;;;6.40;99.90;;;;;;5075608;28;20050;-76
2023/02/02 03:43:29;;;;;;;6.33;1.60;;;6.40;99.90;;;;;;5076376;28;20123;-74
2023/02/02 03:46:01;;;;;;;13.63;2.13;;;6.40;99.90;;;;;;5076221;28;20447;-74
2023/02/02 03:48:27;;;;;;;6.88;2.00;;;6.40;99.90;;;;;;5076059;28;20140;-74
2023/02/02 03:50:53;;;;;;;12.23;2.40;;;6.40;99.90;;;;;;5094317;28;20028;-74
2023/02/02 03:53:19;;;;;;;5.63;2.03;;;6.40;99.90;;;;;;5075389;28;20028;-74
2023/02/02 03:55:44;;;;;;;10.93;2.13;;;6.30;99.90;;;;;;5094224;28;20028;-74
2023/02/02 03:58:10;;;;;;;9.40;2.07;;;6.30;99.90;;;;;;5075172;28;20469;-74
2023/02/02 04:00:36;;;;;;;8.33;1.83;;;6.30;99.90;;;;;;5075867;28;20024;-73
2023/02/02 04:03:01;;;;;;;10.27;2.03;;;6.30;99.90;;;;;;5075804;28;20063;-74
2023/02/02 04:05:27;;;;;;;7.63;2.20;;;6.20;99.90;;;;;;5075324;28;20028;-74
2023/02/02 04:07:53;;;;;;;7.33;2.40;;;6.20;99.90;;;;;;5093769;28;20031;-74
2023/02/02 04:10:18;;;;;;;8.73;2.30;;;6.20;99.90;;;;;;5074831;28;20055;-74
2023/02/02 04:12:44;;;;;;;13.80;2.67;;;6.20;99.90;;;;;;5094009;28;20027;-74
2023/02/02 04:15:10;;;;;;;8.30;2.37;;;6.20;99.90;;;;;;5075009;28;20491;-73
2023/02/02 04:17:36;;;;;;;10.13;2.40;;;6.10;99.90;;;;;;5075881;28;20449;-74
2023/02/02 04:20:03;;;;;;;13.63;2.50;;;6.10;99.90;;;;;;5075332;28;20127;-73
2023/02/02 04:22:28;;;;;;;14.10;2.93;;;6.10;99.90;;;;;;5092942;28;20024;-74
2023/02/02 04:24:54;;;;;;;12.53;2.50;;;6.10;99.90;;;;;;5075260;28;20433;-73
2023/02/02 04:27:20;;;;;;;9.83;2.23;;;6.20;99.90;;;;;;5074541;28;20036;-74
2023/02/02 04:29:45;;;;;;;10.50;2.20;;;6.20;99.90;;;;;;5075191;28;20480;-74
2023/02/02 04:32:13;;;;;;;8.97;2.60;;;6.20;99.90;;;;;;5074675;28;20076;-74
2023/02/02 04:34:38;;;;;;;9.57;2.13;;;6.20;99.90;;;;;;5075257;28;20528;-73
2023/02/02 04:37:04;;;;;;;5.80;1.97;;;6.20;99.90;;;;;;5075164;28;20047;-76
2023/02/02 04:39:30;;;;;;;10.73;2.60;;;6.30;99.90;;;;;;5074845;28;20395;-73
2023/02/02 04:41:55;;;;;;;11.70;2.10;;;6.20;99.90;;;;;;5075173;28;20024;-74
2023/02/02 04:44:21;;;;;;;7.90;2.20;;;6.30;99.90;;;;;;5074255;28;20028;-74
2023/02/02 04:46:46;;;;;;;9.97;2.17;;;6.30;99.90;;;;;;5093003;28;20036;-73
2023/02/02 04:49:12;;;;;;;10.47;2.40;;;6.30;99.90;;;;;;5074071;28;20355;-74
2023/02/02 04:51:39;;;;;;;13.30;2.17;;;6.30;99.90;;;;;;5092983;28;20085;-74
2023/02/02 04:54:05;;;;;;;9.70;2.50;;;6.30;99.90;;;;;;5073872;28;20373;-75
2023/02/02 04:56:31;;;;;;;12.27;2.20;;;6.30;99.90;;;;;;5092519;28;20024;-73
2023/02/02 04:58:57;;;;;;;13.47;2.13;;;6.30;99.90;;;;;;5074737;28;20081;-73
2023/02/02 05:01:23;;;;;;;11.37;2.70;;;6.40;99.90;;;;;;5073946;28;20035;-74
2023/02/02 05:03:49;;;;;;;10.57;2.40;;;6.40;99.90;;;;;;5074795;28;20066;-74
2023/02/02 05:06:16;;;;;;;12.63;2.40;;;6.40;99.90;;;;;;5073460;28;20032;-74
2023/02/02 05:08:42;;;;;;;8.57;2.27;;;6.30;99.90;;;;;;5074757;28;20029;-73
2023/02/02 05:11:13;;;;;;;9.93;2.03;;;6.30;99.90;;;;;;5092734;28;20042;-76
2023/02/02 05:13:43;;;;;;;12.27;2.13;;;6.30;99.90;;;;;;5092846;28;20031;-74
2023/02/02 05:16:09;;;;;;;12.53;2.10;;;6.40;99.90;;;;;;5074055;28;20028;-74
2023/02/02 05:18:34;;;;;;;9.00;2.27;;;6.40;99.90;;;;;;5074573;28;20024;-74
2023/02/02 05:21:01;;;;;;;11.73;2.47;;;6.40;99.90;;;;;;5092810;28;20434;-73
2023/02/02 05:23:27;;;;;;;5.57;1.87;;;6.40;99.90;;;;;;5073735;28;20055;-74
2023/02/02 05:25:53;;;;;;;9.83;2.03;;;6.40;99.90;;;;;;5092504;28;20381;-74
2023/02/02 05:28:21;;;;;;;10.00;2.37;;;6.50;99.90;;;;;;5073693;28;20048;-74
2023/02/02 05:30:46;;;;;;;8.73;2.10;;;6.40;99.90;;;;;;5073948;28;20028;-74
2023/02/02 05:33:12;;;;;;;9.50;2.13;;;6.50;99.90;;;;;;5073618;28;20469;-74
2023/02/02 05:35:38;;;;;;;8.93;2.50;;;6.50;99.90;;;;;;5092101;28;20032;-74
2023/02/02 05:38:03;;;;;;;10.30;3.10;;;6.50;99.90;;;;;;5074096;28;20036;-73
2023/02/02 05:40:29;;;;;;;15.80;2.60;;;6.50;99.90;;;;;;5073693;28;20021;-74
2023/02/02 05:42:55;;;;;;;14.13;2.63;;;6.50;99.90;;;;;;5074253;28;20540;-74
2023/02/02 05:45:21;;;;;;;11.47;2.30;;;6.60;99.90;;;;;;5091530;28;20111;-73
2023/02/02 05:47:46;;;;;;;6.53;2.10;;;6.60;99.90;;;;;;5074238;28;20051;-73
2023/02/02 05:50:12;;;;;;;10.63;2.33;;;6.60;99.90;;;;;;5073677;28;20461;-74
2023/02/02 05:52:41;;;;;;;13.87;2.70;;;6.60;99.90;;;;;;5074264;28;20028;-74
2023/02/02 05:55:08;;;;;;;9.57;2.10;;;6.60;99.90;;;;;;5074282;28;20034;-73
2023/02/02 05:57:34;;;;;;;9.20;2.87;;;6.60;99.90;;;;;;5092127;28;20021;-73
2023/02/02 05:59:59;;;;;;;9.57;2.67;;;6.60;99.90;;;;;;5074253;28;20035;-73
2023/02/02 06:02:25;;;;;;;9.17;2.60;;;6.60;99.90;;;;;;5091462;28;20496;-74
2023/02/02 06:04:50;;;;;;;15.10;2.67;;;6.70;99.90;;;;;;5093606;28;20060;-73
2023/02/02 06:07:16;;;;;;;11.13;3.00;;;6.70;99.90;;;;;;5077296;28;20376;-73
2023/02/02 06:09:41;;;;;;;12.87;3.37;;;6.70;99.90;;;;;;5077674;28;20028;-74
2023/02/02 06:12:07;;;;;;;11.10;2.43;;;6.70;99.90;;;;;;5077950;28;20020;-73
2023/02/02 06:14:33;;;;;;;14.57;2.90;;;6.80;99.90;;;;;;5077206;28;20032;-73
2023/02/02 06:16:58;;;;;;;12.90;2.70;;;6.80;99.90;;;;;;5078166;28;20024;-74
2023/02/02 06:19:24;;;;;;;15.67;2.80;;;6.80;99.90;;;;;;5076995;28;20052;-74
2023/02/02 06:21:49;;;;;;;11.23;2.83;;;6.80;99.90;;;;;;5077630;28;20028;-73
2023/02/02 06:24:15;;;;;;;11.57;2.27;;;6.90;99.90;;;;;;5076457;28;20034;-74
2023/02/02 06:26:41;;;;;;;13.17;2.53;;;6.80;99.90;;;;;;5081862;28;20024;-73
2023/02/02 06:29:10;;;;;;;10.70;2.23;;;6.80;99.90;;;;;;5111465;28;20051;-74
2023/02/02 06:31:36;;;;;;;8.07;2.40;;;6.80;99.90;;;;;;5115174;28;20059;-74
2023/02/02 06:34:01;;;;;;;11.17;2.53;;;6.80;99.90;;;;;;5115572;28;20317;-74
2023/02/02 06:36:27;;;;;;;9.87;2.30;;;6.80;99.90;;;;;;5079829;28;20115;-74
2023/02/02 06:38:54;;;;;;;20.13;2.97;;;6.70;99.90;;;;;;5093150;28;20536;-73
2023/02/02 06:41:20;;;;;;;17.43;2.90;;;6.80;99.90;;;;;;5084962;28;20032;-74
2023/02/02 06:43:47;;;;;;;12.97;2.50;;;6.80;99.90;;;;;;5085010;28;20354;-73
2023/02/02 06:46:13;;;;;;;15.93;2.90;;;6.80;99.90;;;;;;5092224;28;20115;-75
2023/02/02 06:48:38;;;;;;;13.50;2.67;;;6.80;99.90;;;;;;5094679;28;20051;-74
2023/02/02 06:51:04;;;;;;;11.73;2.63;;;6.80;99.90;;;;;;5101701;28;20019;-73
2023/02/02 06:53:30;;;;;;;8.33;2.70;;;6.80;99.90;;;;;;5114515;28;20077;-74
2023/02/02 06:55:59;;;;;;;10.43;2.70;;;6.80;99.90;;;;;;5096888;28;20031;-74
2023/02/02 06:58:25;;;;;;;10.97;2.77;;;6.80;99.90;;;;;;5114080;28;20019;-74
2023/02/02 07:00:51;;;;;;;14.17;2.60;;;6.80;99.90;;;;;;5081135;28;20115;-74
2023/02/02 07:03:17;;;;;;;12.80;2.33;;;6.70;99.90;;;;;;5114569;28;20059;-74
2023/02/02 07:05:43;;;;;;;10.17;2.33;;;6.70;99.90;;;;;;5085135;28;20031;-74
2023/02/02 07:08:09;;;;;;;14.40;2.87;;;6.60;99.90;;;;;;5110192;28;20028;-74
2023/02/02 07:10:37;;;;;;;13.70;2.70;;;6.60;99.90;;;;;;5096866;28;20013;-74
2023/02/02 07:13:05;;;;;;;13.80;3.00;;;6.60;99.90;;;;;;5096511;28;20043;-74
2023/02/02 07:15:32;;;;;;;12.97;2.70;;;6.60;99.90;;;;;;5095971;28;20465;-73
2023/02/02 07:17:57;;;;;;;11.97;2.87;;;6.60;99.90;;;;;;5096328;28;20024;-74
2023/02/02 07:20:23;;;;;;;10.17;2.53;;;6.60;99.90;;;;;;5095612;28;20398;-74
2023/02/02 07:22:48;;;;;;;19.80;2.77;;;6.70;99.90;;;;;;5076501;28;20039;-74
2023/02/02 07:25:14;;;;;;;15.67;2.83;;;6.60;99.90;;;;;;5074922;28;20028;-76
2023/02/02 07:27:40;;;;;;;13.43;2.90;;;6.60;99.90;;;;;;5076115;28;20104;-74
2023/02/02 07:30:06;;;;;;;14.00;2.70;;;6.70;99.90;;;;;;5090813;28;20038;-73
2023/02/02 07:32:31;;;;;;;12.87;2.80;;;6.70;99.90;;;;;;5094199;28;20028;-74
2023/02/02 07:34:57;;;;;;;19.13;2.90;;;6.70;99.90;;;;;;5076402;28;20043;-73
2023/02/02 07:37:23;;;;;;;11.83;2.43;;;6.60;99.90;;;;;;5075409;28;20115;-74
2023/02/02 07:39:48;;;;;;;9.23;2.57;;;6.70;99.90;;;;;;5076242;28;20020;-73
2023/02/02 07:42:14;;;;;;;10.87;2.30;;;6.70;99.90;;;;;;5075991;28;20370;-75
2023/02/02 07:44:39;;;;;;;10.50;2.77;;;6.70;99.90;;;;;;5083227;28;20031;-74
2023/02/02 07:47:05;;;;;;;12.20;2.60;;;6.70;99.90;;;;;;5095738;28;20030;-74
2023/02/02 07:49:31;;;;;;;17.30;3.20;;;6.70;99.90;;;;;;5092041;28;20396;-74
2023/02/02 07:51:57;;;;;;;11.43;2.67;;;6.70;99.90;;;;;;5111944;28;20518;-73
2023/02/02 07:54:23;;;;;;;12.17;2.90;;;6.80;99.90;;;;;;5094803;28;20077;-74
2023/02/02 07:56:48;;;;;;;16.07;3.00;;;6.80;99.90;;;;;;5106314;28;20032;-74
2023/02/02 07:59:14;;;;;;;13.70;2.47;;;6.90;99.90;;;;;;5092568;28;20507;-76
2023/02/02 08:01:40;;;;;;;17.80;3.13;;;6.90;99.90;;;;;;5095737;28;20127;-74
2023/02/02 08:04:06;;;;;;;13.43;2.80;;;6.90;99.90;;;;;;5095624;28;20342;-74
2023/02/02 08:06:38;;;;;;;9.30;2.23;;;7.00;99.90;;;;;;5092969;28;20469;-73
2023/02/02 08:09:06;;;;;;;10.03;3.33;;;7.00;99.90;;;;;;5081479;28;20024;-73
2023/02/02 08:11:33;;;;;;;15.70;3.57;;;7.10;99.90;;;;;;5084757;28;20028;-74
2023/02/02 08:14:00;;;;;;;10.77;2.63;;;7.10;99.90;;;;;;5107123;28;20035;-73
2023/02/02 08:16:28;;;;;;;15.80;3.37;;;7.10;99.90;;;;;;5112041;28;20103;-76
2023/02/02 08:18:54;;;;;;;16.80;3.83;;;7.10;99.90;;;;;;5113473;28;20186;-73
2023/02/02 08:21:20;;;;;;;15.10;3.57;;;7.20;99.90;;;;;;5093406;28;20605;-74
2023/02/02 08:23:47;;;;;;;13.93;3.03;;;7.20;99.90;;;;;;5109555;28;20023;-74
2023/02/02 08:26:24;;;;;;;10.77;3.17;;;7.20;99.90;;;;;;5109772;28;20381;-74
2023/02/02 08:28:55;;;;;;;13.97;3.93;;;7.20;99.90;;;;;;5094031;28;20084;-73
2023/02/02 08:31:23;;;;;;;15.83;3.33;;;7.20;99.90;;;;;;5085389;28;20481;-75
2023/02/02 08:33:50;;;;;;;13.33;3.70;;;7.20;99.90;;;;;;5088326;28;20112;-74
2023/02/02 08:36:19;;;;;;;19.57;3.27;;;7.30;99.90;;;;;;5094233;28;20035;-76
2023/02/02 08:38:45;;;;;;;13.47;3.00;;;7.30;99.90;;;;;;5090823;28;20457;-75
2023/02/02 08:41:13;;;;;;;12.40;3.00;;;7.30;99.90;;;;;;5089055;28;20435;-76
2023/02/02 08:43:40;;;;;;;18.07;3.80;;;7.30;99.90;;;;;;5099307;28;20020;-75
2023/02/02 08:46:07;;;;;;;19.83;6.00;;;7.30;99.90;;;;;;5103239;28;20027;-75
2023/02/02 08:48:34;;;;;;;15.77;3.40;;;7.30;99.90;;;;;;5093436;28;20027;-74
2023/02/02 08:51:01;;;;;;;17.77;3.27;;;7.40;99.90;;;;;;5080449;28;20047;-74
2023/02/02 08:53:27;;;;;;;14.63;3.50;;;7.40;99.90;;;;;;5091375;28;20461;-75
2023/02/02 08:56:09;;;;;;;15.95;3.40;;;7.40;99.90;;;;;;5081320;28;20036;-74
2023/02/02 08:58:35;;;;;;;15.37;3.10;;;7.40;99.90;;;;;;5077884;28;20750;-74
2023/02/02 09:01:05;;;;;;;12.20;3.43;;;7.40;99.90;;;;;;5091351;28;20106;-74
2023/02/02 09:03:31;;;;;;;17.47;3.60;;;7.40;99.90;;;;;;5085541;28;20085;-74
2023/02/02 09:05:57;;;;;;;12.17;3.60;;;7.40;99.90;;;;;;5078519;28;20074;-74
2023/02/02 09:08:22;;;;;;;15.97;3.90;;;7.40;99.90;;;;;;5090244;28;20108;-73
2023/02/02 09:10:48;;;;;;;16.30;3.70;;;7.40;99.90;;;;;;5091947;28;20022;-73
2023/02/02 09:13:13;;;;;;;17.77;3.60;;;7.40;99.90;;;;;;5086572;28;20035;-76
2023/02/02 09:15:39;;;;;;;10.80;3.17;;;7.40;99.90;;;;;;5093329;28;20034;-75
2023/02/02 09:18:05;;;;;;;14.17;3.57;;;7.40;99.90;;;;;;5090951;28;20020;-74
2023/02/02 09:20:30;;;;;;;16.07;3.70;;;7.50;99.90;;;;;;5088321;28;20051;-75
2023/02/02 09:22:57;;;;;;;17.52;3.53;;;7.50;99.90;;;;;;5094409;28;20028;-74
2023/02/02 09:25:24;;;;;;;16.37;3.63;;;7.50;99.90;;;;;;5090329;28;20472;-75
2023/02/02 09:27:50;;;;;;;11.60;3.73;;;7.50;99.90;;;;;;5089314;28;20035;-78
2023/02/02 09:30:16;;;;;;;18.38;3.55;;;7.60;99.90;;;;;;5079707;28;20020;-78
2023/02/02 09:32:42;;;;;;;18.50;3.70;;;7.60;99.90;;;;;;5073966;28;20028;-75
2023/02/02 09:35:07;;;;;;;19.92;3.65;;;7.60;99.90;;;;;;5082884;28;20026;-75
2023/02/02 09:37:34;;;;;;;14.23;3.27;;;7.60;99.90;;;;;;5109334;28;20026;-75
2023/02/02 09:39:59;;;;;;;16.27;3.30;;;7.60;99.90;;;;;;5111994;28;20016;-75
2023/02/02 09:43:00;;;;;;;18.20;3.30;;;7.60;99.90;;;;;;5076226;28;20035;-75
2023/02/02 09:45:40;;;;;;;12.97;3.50;;;7.60;99.90;;;;;;5081648;28;20055;-75
2023/02/02 09:48:15;;;;;;;13.18;3.20;;;7.60;99.90;;;;;;5108817;28;20028;-76
2023/02/02 09:50:46;;;;;;;18.75;3.50;;;7.60;99.90;;;;;;5091262;28;20123;-75
2023/02/02 09:53:33;;;;;;;17.60;3.20;;;7.60;99.90;;;;;;5086550;28;20020;-74
2023/02/02 09:56:02;;;;;;;14.17;3.20;;;7.60;99.90;;;;;;5112199;28;20110;-73
2023/02/02 09:58:44;;;;;;;10.57;3.38;;;7.70;99.90;;;;;;5095038;28;20046;-74
2023/02/02 10:01:15;;;;;;;14.75;3.13;;;7.70;99.90;;;;;;5086474;28;20016;-73
2023/02/02 10:03:55;;;;;;;12.00;2.85;;;7.70;99.90;;;;;;5104520;28;20049;-73
2023/02/02 10:06:33;;;;;;;15.88;3.38;;;7.80;99.90;;;;;;5092669;28;20028;-74
2023/02/02 10:09:26;;;;;;;14.40;3.40;;;8.00;99.90;;;;;;5091353;28;20494;-73
2023/02/02 10:12:00;;;;;;;16.33;3.78;;;8.00;99.90;;;;;;5091514;28;20038;-73
2023/02/02 10:14:40;;;;;;;12.90;3.30;;;8.10;99.90;;;;;;5076087;28;20376;-74
2023/02/02 10:17:47;;;;;;;15.60;2.80;;;8.10;99.90;;;;;;5073832;28;20032;-76
2023/02/02 10:20:37;;;;;;;19.10;2.55;;;8.00;99.90;;;;;;5035968;28;20048;-74
2023/02/02 10:23:31;;;;;;;13.93;2.75;;;8.00;99.90;;;;;;5079560;28;20413;-74
2023/02/02 10:26:18;;;;;;;15.68;2.72;;;8.10;99.90;;;;;;5078178;28;20040;-76
2023/02/02 10:29:16;;;;;;;12.35;2.63;;;8.10;99.90;;;;;;5106068;28;20060;-73
2023/02/02 10:31:44;;;;;;;13.52;2.97;;;8.20;99.90;;;;;;5101646;28;20032;-73
2023/02/02 10:34:34;;;;;;;13.73;2.50;;;8.10;99.90;;;;;;5094517;28;20111;-73
2023/02/02 10:37:18;;;;;;;9.40;2.67;;;8.10;99.90;;;;;;5086945;28;20027;-73
2023/02/02 10:40:02;;;;;;;11.57;2.85;;;8.10;99.90;;;;;;5082088;28;20028;-73
2023/02/02 10:46:03;;;;;;;12.20;2.30;;;8.10;99.90;;;;;;5104422;28;20039;-73
2023/02/02 10:48:34;;;;;;;16.70;3.10;;;8.10;99.90;;;;;;5075991;28;20033;-73
2023/02/02 10:51:10;;;;;;;8.18;2.58;;;8.10;99.90;;;;;;5088072;28;20539;-73
2023/02/02 10:53:36;;;;;;;9.68;2.00;;;8.10;99.90;;;;;;5086349;28;20483;-73
2023/02/02 10:56:07;;;;;;;12.40;2.70;;;8.10;99.90;;;;;;5096680;28;20028;-73
2023/02/02 10:59:04;;;;;;;12.27;2.20;;;8.10;99.90;;;;;;5094725;28;20445;-73
2023/02/02 11:01:30;;;;;;;10.75;2.30;;;8.10;99.90;;;;;;5058092;28;20540;-73
2023/02/02 11:06:49;;;;;;;9.95;2.42;;;8.10;99.90;;;;;;5110486;28;20062;-72
2023/02/02 11:09:22;;;;;;;12.23;2.10;;;8.10;99.90;;;;;;5084481;28;20024;-73
2023/02/02 11:11:52;;;;;;;8.13;2.47;;;8.10;99.90;;;;;;5084850;28;20028;-72
2023/02/02 11:14:29;;;;;;;10.35;2.35;;;8.10;99.90;;;;;;5092330;28;20038;-75
2023/02/02 11:17:04;;;;;;;15.10;2.38;;;8.20;99.90;;;;;;5081012;28;20473;-73
2023/02/02 11:19:32;;;;;;;10.68;2.00;;;8.10;99.90;;;;;;5095001;28;20135;-73
2023/02/02 11:22:01;;;;;;;9.65;2.00;;;8.10;99.90;;;;;;5083134;28;20024;-73
2023/02/02 11:24:40;;;;;;;12.10;2.05;;;8.10;99.90;;;;;;5106415;28;20132;-73
2023/02/02 11:27:17;;;;;;;9.80;1.92;;;8.10;99.90;;;;;;5096393;28;20085;-73
2023/02/02 11:29:50;;;;;;;9.82;2.00;;;8.10;99.90;;;;;;5085014;28;20024;-73
2023/02/02 11:32:28;;;;;;;12.77;2.25;;;8.10;99.90;;;;;;5092858;28;20046;-73
2023/02/02 11:35:03;;;;;;;16.67;2.08;;;8.10;99.90;;;;;;5099040;28;20055;-73
2023/02/02 11:37:37;;;;;;;10.15;2.10;;;8.10;99.90;;;;;;5086014;28;20465;-73
2023/02/02 11:40:29;;;;;;;12.20;2.20;;;8.00;99.90;;;;;;5090087;28;20028;-72
2023/02/02 11:42:56;;;;;;;7.38;1.77;;;8.10;99.90;;;;;;5098364;28;20020;-73
2023/02/02 11:45:34;;;;;;;10.10;2.20;;;8.00;99.90;;;;;;5086517;28;20036;-76
2023/02/02 11:48:06;;;;;;;11.53;2.13;;;8.00;99.90;;;;;;5075892;28;20054;-73
2023/02/02 11:50:32;;;;;;;12.25;2.03;;;8.10;99.90;;;;;;5075118;28;20035;-73
2023/02/02 11:52:58;;;;;;;11.70;2.20;;;8.10;99.90;;;;;;5081246;28;20030;-73
2023/02/02 11:55:29;;;;;;;9.70;2.17;;;8.10;99.90;;;;;;5112806;28;20079;-74
2023/02/02 11:58:27;;;;;;;11.35;2.55;;;8.10;99.90;;;;;;5096087;28;20453;-73
2023/02/02 12:01:02;;;;;;;4.35;2.03;;;8.10;99.90;;;;;;5080304;28;20103;-73
2023/02/02 12:03:32;;;;;;;7.50;2.10;;;8.10;99.90;;;;;;5085822;28;20435;-73
2023/02/02 12:06:00;;;;;;;11.13;2.63;;;8.10;99.90;;;;;;5088695;28;20031;-73
2023/02/02 12:08:27;;;;;;;8.60;2.10;;;8.10;99.90;;;;;;5095099;28;20031;-73
2023/02/02 12:11:01;;;;;;;13.13;2.40;;;8.20;99.90;;;;;;5091155;28;20073;-73
2023/02/02 12:13:36;;;;;;;11.68;2.20;;;8.20;99.90;;;;;;5101638;28;20032;-73
2023/02/02 12:16:11;;;;;;;8.77;2.28;;;8.30;99.90;;;;;;5095742;28;20024;-73
2023/02/02 12:18:58;;;;;;;12.02;2.13;;;8.30;99.90;;;;;;5113183;28;20030;-72
2023/02/02 12:21:27;;;;;;;8.85;2.50;;;8.40;99.90;;;;;;5085964;28;20044;-73
2023/02/02 12:24:17;;;;;;;8.73;2.03;;;8.30;99.90;;;;;;5100623;28;20023;-73
2023/02/02 12:26:56;;;;;;;9.63;2.40;;;8.30;99.90;;;;;;5091604;28;20043;-73
2023/02/02 12:29:33;;;;;;;10.55;2.15;;;8.30;99.90;;;;;;5101073;28;20039;-75
2023/02/02 12:32:19;;;;;;;11.07;1.90;;;8.40;99.90;;;;;;5099622;28;20093;-73
2023/02/02 12:34:50;;;;;;;11.88;2.05;;;8.50;99.90;;;;;;5077967;28;20135;-73
2023/02/02 12:37:25;;;;;;;14.27;2.80;;;8.50;99.90;;;;;;5105600;28;20016;-73
2023/02/02 12:40:18;;;;;;;12.52;2.17;;;8.60;99.90;;;;;;5087600;28;20035;-73
2023/02/02 12:42:49;;;;;;;6.68;2.05;;;8.60;99.90;;;;;;5077827;28;20115;-73
2023/02/02 12:45:21;;;;;;;11.38;2.20;;;8.60;99.90;;;;;;5087255;28;20016;-74
2023/02/02 12:48:10;;;;;;;8.52;1.95;;;8.60;99.90;;;;;;5087332;28;20131;-73
2023/02/02 12:50:50;;;;;;;7.47;1.90;;;8.60;99.90;;;;;;5094438;28;20361;-73
2023/02/02 12:53:36;;;;;;;9.73;2.22;;;8.60;99.90;;;;;;5092620;28;20425;-73
2023/02/02 12:56:04;;;;;;;8.40;2.22;;;8.60;99.90;;;;;;5088895;28;20030;-73
2023/02/02 12:58:33;;;;;;;7.53;2.03;;;8.60;99.90;;;;;;5092932;28;20023;-73
2023/02/02 13:01:41;;;;;;;8.77;1.75;;;8.50;99.90;;;;;;5098488;28;20026;-73
2023/02/02 13:04:23;;;;;;;7.40;2.05;;;8.40;99.90;;;;;;5000782;28;20507;-73
2023/02/02 13:06:57;;;;;;;11.68;2.28;;;8.40;99.90;;;;;;5074744;28;20048;-73
2023/02/02 13:09:33;;;;;;;7.45;1.67;;;8.40;99.90;;;;;;5074093;28;20085;-75
2023/02/02 13:12:05;;;;;;;6.97;1.65;;;8.40;99.90;;;;;;5095165;28;20126;-73
2023/02/02 13:15:15;;;;;;;7.93;1.75;;;8.30;99.90;;;;;;5076547;28;20378;-73
2023/02/02 13:17:53;;;;;;;10.35;1.70;;;8.30;99.90;;;;;;5039114;28;20039;-73
2023/02/02 13:20:46;;;;;;;8.32;1.70;;;8.20;99.90;;;;;;5087977;28;20123;-73
2023/02/02 13:23:17;;;;;;;10.85;1.98;;;8.20;99.90;;;;;;5089457;28;20144;-73